createdAt,value
2023-04-13T00:00:41.295Z,27.23
2023-04-13T00:03:12.272Z,19.30
2023-04-13T00:05:40.274Z,19.20
2023-04-13T00:08:08.373Z,17.98
2023-04-13T00:10:36.508Z,19.10
2023-04-13T00:13:08.620Z,19.33
2023-04-13T00:15:38.070Z,18.85
2023-04-13T00:18:07.020Z,27.73
2023-04-13T00:20:34.120Z,20.40
2023-04-13T00:23:01.304Z,19.80
2023-04-13T00:25:29.233Z,19.55
2023-04-13T00:27:56.346Z,19.08
2023-04-13T00:30:23.302Z,19.90
2023-04-13T00:32:50.361Z,27.73
2023-04-13T00:35:25.112Z,18.30
2023-04-13T00:37:55.301Z,17.90
2023-04-13T00:40:24.638Z,18.65
2023-04-13T00:42:53.768Z,18.48
2023-04-13T00:45:20.933Z,19.23
2023-04-13T00:47:50.637Z,19.92
2023-04-13T00:50:20.828Z,17.80
2023-04-13T00:52:48.990Z,18.88
2023-04-13T00:55:20.877Z,19.30
2023-04-13T00:57:50.261Z,18.73
2023-04-13T01:00:18.550Z,19.25
2023-04-13T01:02:45.661Z,19.58
2023-04-13T01:05:15.458Z,18.90
2023-04-13T01:07:47.347Z,17.60
2023-04-13T01:10:45.186Z,18.55
2023-04-13T01:13:20.608Z,18.13
2023-04-13T01:16:06.065Z,18.20
2023-04-13T01:18:39.330Z,19.10
2023-04-13T01:21:12.908Z,18.50
2023-04-13T01:23:58.912Z,17.05
2023-04-13T01:28:59.049Z,17.20
2023-04-13T01:31:26.055Z,18.70
2023-04-13T01:33:53.971Z,16.92
2023-04-13T01:36:22.104Z,18.17
2023-04-13T01:38:49.084Z,17.45
2023-04-13T01:41:16.649Z,18.50
2023-04-13T01:43:46.174Z,19.50
2023-04-13T01:46:15.114Z,18.23
2023-04-13T01:49:11.356Z,19.73
2023-04-13T01:52:07.444Z,16.90
2023-04-13T01:54:37.721Z,18.55
2023-04-13T01:57:05.099Z,18.27
2023-04-13T01:59:34.631Z,17.77
2023-04-13T02:02:01.716Z,26.67
2023-04-13T02:04:29.534Z,26.08
2023-04-13T02:06:56.694Z,16.15
2023-04-13T02:09:30.724Z,16.90
2023-04-13T02:11:57.673Z,24.83
2023-04-13T02:14:25.222Z,16.77
2023-04-13T02:16:53.648Z,16.98
2023-04-13T02:19:21.740Z,24.70
2023-04-13T02:21:48.905Z,17.33
2023-04-13T02:24:17.010Z,16.45
2023-04-13T02:26:45.038Z,15.70
2023-04-13T02:29:12.438Z,15.80
2023-04-13T02:31:44.057Z,16.55
2023-04-13T02:34:11.467Z,16.45
2023-04-13T02:36:39.305Z,15.85
2023-04-13T02:39:08.845Z,15.10
2023-04-13T02:41:36.002Z,16.00
2023-04-13T02:44:03.078Z,15.63
2023-04-13T02:46:40.289Z,15.82
2023-04-13T02:49:15.079Z,15.43
2023-04-13T02:51:53.074Z,16.33
2023-04-13T02:54:28.533Z,16.75
2023-04-13T02:56:56.551Z,15.13
2023-04-13T02:59:23.637Z,16.02
2023-04-13T03:01:50.801Z,24.05
2023-04-13T03:04:20.698Z,15.20
2023-04-13T03:06:48.810Z,16.42
2023-04-13T03:09:16.246Z,15.88
2023-04-13T03:11:48.372Z,15.63
2023-04-13T03:14:23.306Z,15.13
2023-04-13T03:17:02.869Z,15.02
2023-04-13T03:22:06.011Z,15.23
2023-04-13T03:24:35.865Z,13.95
2023-04-13T03:27:06.656Z,15.15
2023-04-13T03:29:39.092Z,16.70
2023-04-13T03:32:08.829Z,16.70
2023-04-13T03:34:43.896Z,15.15
2023-04-13T03:37:12.712Z,15.85
2023-04-13T03:39:40.858Z,16.77
2023-04-13T03:42:11.590Z,17.75
2023-04-13T03:44:44.436Z,17.88
2023-04-13T03:47:11.767Z,16.27
2023-04-13T03:49:39.878Z,16.85
2023-04-13T03:52:06.985Z,18.35
2023-04-13T03:54:40.269Z,17.35
2023-04-13T03:57:07.416Z,17.48
2023-04-13T03:59:35.141Z,18.05
2023-04-13T04:02:03.923Z,17.48
2023-04-13T04:04:33.365Z,18.40
2023-04-13T04:07:00.336Z,17.73
2023-04-13T04:09:27.557Z,17.92
2023-04-13T04:11:56.630Z,17.73
2023-04-13T04:14:35.990Z,17.95
2023-04-13T04:17:11.706Z,19.15
2023-04-13T04:19:39.191Z,18.65
2023-04-13T04:22:07.265Z,18.77
2023-04-13T04:24:38.669Z,18.55
2023-04-13T04:27:05.726Z,16.67
2023-04-13T04:29:35.878Z,17.67
2023-04-13T04:32:13.237Z,17.75
2023-04-13T04:34:41.082Z,17.92
2023-04-13T04:37:20.236Z,17.67
2023-04-13T04:39:56.644Z,17.67
2023-04-13T04:42:25.864Z,17.45
2023-04-13T04:44:52.989Z,17.63
2023-04-13T04:47:21.608Z,18.10
2023-04-13T04:50:05.006Z,16.50
2023-04-13T04:52:37.633Z,17.90
2023-04-13T04:55:06.349Z,19.02
2023-04-13T04:57:34.954Z,18.27
2023-04-13T05:00:29.646Z,17.92
2023-04-13T05:03:04.917Z,18.33
2023-04-13T05:05:32.013Z,18.95
2023-04-13T05:08:05.205Z,17.85
2023-04-13T05:10:34.986Z,18.08
2023-04-13T05:13:02.941Z,18.63
2023-04-13T05:15:30.635Z,18.30
2023-04-13T05:17:58.735Z,18.88
2023-04-13T05:20:28.593Z,19.45
2023-04-13T05:23:01.457Z,19.48
2023-04-13T05:25:29.008Z,19.48
2023-04-13T05:28:00.047Z,18.60
2023-04-13T05:30:28.413Z,21.00
2023-04-13T05:32:55.484Z,18.92
2023-04-13T05:35:23.675Z,19.42
2023-04-13T05:37:51.053Z,28.50
2023-04-13T05:40:21.914Z,19.30
2023-04-13T05:42:49.308Z,17.60
2023-04-13T05:45:22.974Z,19.73
2023-04-13T05:48:01.324Z,18.92
2023-04-13T05:50:29.322Z,18.30
2023-04-13T05:52:57.357Z,18.35
2023-04-13T05:55:24.856Z,18.88
2023-04-13T05:58:00.724Z,18.90
2023-04-13T06:00:28.598Z,19.30
2023-04-13T06:03:03.108Z,22.53
2023-04-13T06:05:31.875Z,18.85
2023-04-13T06:07:59.827Z,18.08
2023-04-13T06:10:27.120Z,17.52
2023-04-13T06:12:54.883Z,17.20
2023-04-13T06:15:21.999Z,17.63
2023-04-13T06:17:52.889Z,17.55
2023-04-13T06:20:21.474Z,17.42
2023-04-13T06:22:48.547Z,17.98
2023-04-13T06:25:16.653Z,18.95
2023-04-13T06:27:47.141Z,17.45
2023-04-13T06:30:14.860Z,17.73
2023-04-13T06:32:42.507Z,17.40
2023-04-13T06:35:10.893Z,16.80
2023-04-13T06:37:43.806Z,16.77
2023-04-13T06:40:17.851Z,17.67
2023-04-13T06:42:57.729Z,17.63
2023-04-13T06:45:33.730Z,25.08
2023-04-13T06:48:07.058Z,22.92
2023-04-13T06:50:36.877Z,17.88
2023-04-13T06:53:05.378Z,16.90
2023-04-13T06:55:32.949Z,15.85
2023-04-13T06:57:59.945Z,16.00
2023-04-13T07:00:30.015Z,16.17
2023-04-13T07:03:01.886Z,16.45
2023-04-13T07:05:29.954Z,15.13
2023-04-13T07:08:03.728Z,15.85
2023-04-13T07:10:31.242Z,15.23
2023-04-13T07:13:03.668Z,15.27
2023-04-13T07:15:32.217Z,15.68
2023-04-13T07:17:59.433Z,15.93
2023-04-13T07:20:27.280Z,17.38
2023-04-13T07:22:54.592Z,15.70
2023-04-13T07:25:21.915Z,16.83
2023-04-13T07:27:49.767Z,19.40
2023-04-13T07:30:17.368Z,17.52
2023-04-13T07:32:46.950Z,17.65
2023-04-13T07:35:14.205Z,16.95
2023-04-13T07:37:43.486Z,18.23
2023-04-13T07:40:11.833Z,18.13
2023-04-13T07:42:41.382Z,19.25
2023-04-13T07:45:13.955Z,23.50
2023-04-13T07:47:41.450Z,17.33
2023-04-13T07:50:09.737Z,16.35
2023-04-13T07:52:37.938Z,16.92
2023-04-13T07:55:06.227Z,16.10
2023-04-13T07:57:36.972Z,15.57
2023-04-13T08:00:06.587Z,14.98
2023-04-13T08:02:41.628Z,18.90
2023-04-13T08:05:12.522Z,19.70
2023-04-13T08:07:40.566Z,20.90
2023-04-13T08:10:08.541Z,15.57
2023-04-13T08:12:35.500Z,14.90
2023-04-13T08:15:02.963Z,14.23
2023-04-13T08:17:30.028Z,21.63
2023-04-13T08:19:57.102Z,14.32
2023-04-13T08:22:24.044Z,13.68
2023-04-13T08:24:50.975Z,14.55
2023-04-13T08:27:19.436Z,13.77
2023-04-13T08:29:46.718Z,13.18
2023-04-13T08:32:16.871Z,13.82
2023-04-13T08:34:43.956Z,12.02
2023-04-13T08:37:12.804Z,12.15
2023-04-13T08:39:39.865Z,12.25
2023-04-13T08:42:08.107Z,11.55
2023-04-13T08:44:40.287Z,16.85
2023-04-13T08:47:10.713Z,11.93
2023-04-13T08:49:39.947Z,10.90
2023-04-13T08:52:09.619Z,10.07
2023-04-13T08:54:38.732Z,10.77
2023-04-13T08:57:12.258Z,12.60
2023-04-13T08:59:42.238Z,12.70
2023-04-13T09:02:10.156Z,11.38
2023-04-13T09:04:50.726Z,11.48
2023-04-13T09:07:27.841Z,10.70
2023-04-13T09:10:00.614Z,10.95
2023-04-13T09:12:29.093Z,9.90
2023-04-13T09:14:56.221Z,13.68
2023-04-13T09:17:27.807Z,10.10
2023-04-13T09:19:59.883Z,8.82
2023-04-13T09:22:29.220Z,8.43
2023-04-13T09:24:57.082Z,9.15
2023-04-13T09:27:24.296Z,12.10
2023-04-13T09:29:55.623Z,8.60
2023-04-13T09:32:24.035Z,8.30
2023-04-13T09:35:04.360Z,8.95
2023-04-13T09:37:35.460Z,9.23
2023-04-13T09:40:10.912Z,9.43
2023-04-13T09:42:40.172Z,10.10
2023-04-13T09:45:08.086Z,10.60
2023-04-13T09:47:37.746Z,10.82
2023-04-13T09:50:05.615Z,14.15
2023-04-13T09:52:33.091Z,18.02
2023-04-13T09:55:00.348Z,12.57
2023-04-13T09:57:31.456Z,11.32
2023-04-13T10:00:07.203Z,12.00
2023-04-13T10:02:41.289Z,10.27
2023-04-13T10:05:12.408Z,11.85
2023-04-13T10:07:42.067Z,11.40
2023-04-13T10:10:09.430Z,16.35
2023-04-13T10:12:49.582Z,10.65
2023-04-13T10:15:35.471Z,11.95
2023-04-13T10:18:30.762Z,11.57
2023-04-13T10:20:59.417Z,11.90
2023-04-13T10:23:29.328Z,12.52
2023-04-13T10:25:58.326Z,12.20
2023-04-13T10:28:27.277Z,11.52
2023-04-13T10:30:54.947Z,11.70
2023-04-13T10:33:23.160Z,10.38
2023-04-13T10:35:58.164Z,9.55
2023-04-13T10:38:25.633Z,10.95
2023-04-13T10:40:52.701Z,11.25
2023-04-13T10:43:30.315Z,10.98
2023-04-13T10:46:13.501Z,10.50
2023-04-13T10:48:43.700Z,11.20
2023-04-13T10:51:10.860Z,10.77
2023-04-13T10:53:38.460Z,9.73
2023-04-13T10:56:16.638Z,10.15
2023-04-13T10:58:43.625Z,9.55
2023-04-13T11:01:11.127Z,10.88
2023-04-13T11:03:39.188Z,10.63
2023-04-13T11:06:08.282Z,9.98
2023-04-13T11:08:37.233Z,10.00
2023-04-13T11:11:04.873Z,12.07
2023-04-13T11:13:32.770Z,8.65
2023-04-13T11:16:06.677Z,11.27
2023-04-13T11:18:33.786Z,10.10
2023-04-13T11:21:04.683Z,7.95
2023-04-13T11:23:36.223Z,7.97
2023-04-13T11:26:04.874Z,6.68
2023-04-13T11:28:43.828Z,7.65
2023-04-13T11:31:11.923Z,5.88
2023-04-13T11:33:40.424Z,6.68
2023-04-13T11:36:09.782Z,6.40
2023-04-13T11:38:39.847Z,3.95
2023-04-13T11:43:37.126Z,3.90
2023-04-13T11:46:04.219Z,3.53
2023-04-13T11:48:31.768Z,3.88
2023-04-13T11:50:59.580Z,4.53
2023-04-13T11:53:27.090Z,3.28
2023-04-13T11:55:54.109Z,2.75
2023-04-13T11:58:21.526Z,3.55
2023-04-13T12:00:49.104Z,3.08
2023-04-13T12:05:59.607Z,2.45
2023-04-13T12:08:27.084Z,2.10
2023-04-13T12:13:49.925Z,1.60
2023-04-13T12:21:33.829Z,1.30
2023-04-13T12:24:03.074Z,1.08
2023-04-13T12:29:05.776Z,0.80
2023-04-13T12:31:34.959Z,0.50
2023-04-13T12:34:11.355Z,0.63
2023-04-13T12:36:38.452Z,0.60
2023-04-13T12:39:06.746Z,0.65
2023-04-13T12:41:34.109Z,0.80
2023-04-13T12:44:01.397Z,1.20
2023-04-13T12:46:28.977Z,0.73
2023-04-13T12:48:56.418Z,0.88
2023-04-13T12:51:23.587Z,0.70
2023-04-13T12:53:50.485Z,0.52
2023-04-13T12:56:17.453Z,0.55
2023-04-13T12:58:44.451Z,0.60
2023-04-13T13:01:11.581Z,0.73
2023-04-13T13:03:38.725Z,0.60
2023-04-13T13:06:06.277Z,0.98
2023-04-13T13:08:36.065Z,0.70
2023-04-13T13:11:04.834Z,0.50
2023-04-13T13:13:31.868Z,0.50
2023-04-13T13:15:59.029Z,0.47
2023-04-13T13:18:35.163Z,0.40
2023-04-13T13:21:09.857Z,0.50
2023-04-13T13:23:36.901Z,0.63
2023-04-13T13:26:21.427Z,0.63
2023-04-13T13:28:52.222Z,0.32
2023-04-13T13:31:19.773Z,0.40
2023-04-13T13:33:47.159Z,0.38
2023-04-13T13:36:14.884Z,0.38
2023-04-13T13:38:43.394Z,0.30
2023-04-13T13:41:10.792Z,0.50
2023-04-13T13:43:38.466Z,0.30
2023-04-13T13:46:06.063Z,0.30
2023-04-13T13:48:34.859Z,0.30
2023-04-13T13:51:37.345Z,0.43
2023-04-13T13:54:06.870Z,0.30
2023-04-13T13:56:34.056Z,0.20
2023-04-13T13:59:01.407Z,0.38
2023-04-13T14:01:28.904Z,0.55
2023-04-13T14:03:55.978Z,0.30
2023-04-13T14:06:23.014Z,0.47
2023-04-13T14:08:50.005Z,0.30
2023-04-13T14:11:17.033Z,0.25
2023-04-13T14:13:43.987Z,0.20
2023-04-13T14:16:10.966Z,0.25
2023-04-13T14:18:37.973Z,0.28
2023-04-13T14:21:05.002Z,0.30
2023-04-13T14:23:32.624Z,0.50
2023-04-13T14:25:59.764Z,0.60
2023-04-13T14:28:27.398Z,0.40
2023-04-13T14:30:54.466Z,0.50
2023-04-13T14:33:22.854Z,0.20
2023-04-13T14:35:49.907Z,0.68
2023-04-13T14:38:17.051Z,0.38
2023-04-13T14:40:44.075Z,0.50
2023-04-13T14:43:10.981Z,0.45
2023-04-13T14:45:38.012Z,0.40
2023-04-13T14:48:05.412Z,0.60
2023-04-13T14:50:32.688Z,0.50
2023-04-13T14:52:59.755Z,0.50
2023-04-13T14:55:27.436Z,0.60
2023-04-13T14:57:55.560Z,0.75
2023-04-13T15:00:26.432Z,0.70
2023-04-13T15:02:54.003Z,0.80
2023-04-13T15:05:21.233Z,0.80
2023-04-13T15:07:48.497Z,0.70
2023-04-13T15:10:16.658Z,0.50
2023-04-13T15:12:43.740Z,0.57
2023-04-13T15:15:11.177Z,0.98
2023-04-13T15:17:38.127Z,0.70
2023-04-13T15:20:07.479Z,0.52
2023-04-13T15:22:36.163Z,0.90
2023-04-13T15:25:03.561Z,0.88
2023-04-13T15:27:30.668Z,0.80
2023-04-13T15:29:59.921Z,0.60
2023-04-13T15:32:27.092Z,0.43
2023-04-13T15:34:56.343Z,0.82
2023-04-13T15:37:24.233Z,0.70
2023-04-13T15:39:51.233Z,0.70
2023-04-13T15:42:21.027Z,0.57
2023-04-13T15:44:48.642Z,0.73
2023-04-13T15:47:16.376Z,0.40
2023-04-13T15:49:43.580Z,0.52
2023-04-13T15:52:10.677Z,0.80
2023-04-13T15:54:37.587Z,0.70
2023-04-13T15:57:04.631Z,0.75
2023-04-13T15:59:34.039Z,0.93
2023-04-13T16:02:01.739Z,0.70
2023-04-13T16:04:29.186Z,0.80
2023-04-13T16:07:11.879Z,0.40
2023-04-13T16:09:41.312Z,0.70
2023-04-13T16:12:10.973Z,0.40
2023-04-13T16:14:45.370Z,0.60
2023-04-13T16:17:14.908Z,0.90
2023-04-13T16:19:46.646Z,0.50
2023-04-13T16:22:13.802Z,0.52
2023-04-13T16:24:41.080Z,0.65
2023-04-13T16:27:08.718Z,0.50
2023-04-13T16:29:35.688Z,4.43
2023-04-13T16:32:02.679Z,1.15
2023-04-13T16:34:29.719Z,0.70
2023-04-13T16:36:57.697Z,0.70
2023-04-13T16:39:24.777Z,0.60
2023-04-13T16:41:51.933Z,0.52
2023-04-13T16:44:20.198Z,0.40
2023-04-13T16:46:48.622Z,0.50
2023-04-13T16:49:16.792Z,0.40
2023-04-13T16:51:45.464Z,0.40
2023-04-13T16:54:13.933Z,0.40
2023-04-13T16:56:41.265Z,0.40
2023-04-13T16:59:08.240Z,0.50
2023-04-13T17:01:37.234Z,1.00
2023-04-13T17:04:05.913Z,0.57
2023-04-13T17:06:36.848Z,0.50
2023-04-13T17:09:06.854Z,0.60
2023-04-13T17:11:34.409Z,0.57
2023-04-13T17:14:01.430Z,0.50
2023-04-13T17:16:29.527Z,0.40
2023-04-13T17:18:56.887Z,0.60
2023-04-13T17:21:24.046Z,0.50
2023-04-13T17:23:51.000Z,0.65
2023-04-13T17:26:18.008Z,0.70
2023-04-13T17:28:45.128Z,0.68
2023-04-13T17:31:12.089Z,0.65
2023-04-13T17:33:39.064Z,0.77
2023-04-13T17:36:06.157Z,0.50
2023-04-13T17:38:33.058Z,0.68
2023-04-13T17:41:00.094Z,0.55
2023-04-13T17:43:27.176Z,0.85
2023-04-13T17:45:54.199Z,1.67
2023-04-13T17:48:21.199Z,2.35
2023-04-13T17:50:48.232Z,1.33
2023-04-13T17:53:15.576Z,1.10
2023-04-13T17:55:42.506Z,1.10
2023-04-13T17:58:10.852Z,0.80
2023-04-13T18:00:38.250Z,0.80
2023-04-13T18:03:06.190Z,0.65
2023-04-13T18:05:33.165Z,0.70
2023-04-13T18:08:00.495Z,0.68
2023-04-13T18:10:27.554Z,0.60
2023-04-13T18:13:00.036Z,0.85
2023-04-13T18:15:27.130Z,0.50
2023-04-13T18:17:54.085Z,0.82
2023-04-13T18:20:21.229Z,0.60
2023-04-13T18:22:48.155Z,0.88
2023-04-13T18:25:15.505Z,1.10
2023-04-13T18:27:42.951Z,0.77
2023-04-13T18:30:11.833Z,0.88
2023-04-13T18:32:38.755Z,0.70
2023-04-13T18:35:06.572Z,0.88
2023-04-13T18:37:33.542Z,1.75
2023-04-13T18:40:00.450Z,0.90
2023-04-13T18:42:27.336Z,0.88
2023-04-13T18:44:54.280Z,1.15
2023-04-13T18:47:24.068Z,1.35
2023-04-13T18:49:51.196Z,1.13
2023-04-13T18:52:18.221Z,1.60
2023-04-13T18:54:45.331Z,1.55
2023-04-13T18:57:12.227Z,1.48
2023-04-13T18:59:39.256Z,1.40
2023-04-13T19:02:06.432Z,1.80
2023-04-13T19:04:35.108Z,1.90
2023-04-13T19:07:02.445Z,1.38
2023-04-13T19:09:31.178Z,1.58
2023-04-13T19:12:02.142Z,1.30
2023-04-13T19:14:29.795Z,1.50
2023-04-13T19:16:57.903Z,1.30
2023-04-13T19:19:25.421Z,1.23
2023-04-13T19:21:54.712Z,1.27
2023-04-13T19:24:22.879Z,1.45
2023-04-13T19:26:50.000Z,1.25
2023-04-13T19:29:17.466Z,1.90
2023-04-13T19:31:45.674Z,1.55
2023-04-13T19:34:13.136Z,1.48
2023-04-13T19:36:41.105Z,1.88
2023-04-13T19:39:08.969Z,1.40
2023-04-13T19:41:39.076Z,1.77
2023-04-13T19:44:08.592Z,1.45
2023-04-13T19:46:36.404Z,2.00
2023-04-13T19:49:03.640Z,1.60
2023-04-13T19:51:32.866Z,1.60
2023-04-13T19:54:02.784Z,1.80
2023-04-13T19:56:30.825Z,1.90
2023-04-13T19:58:58.436Z,1.30
2023-04-13T20:01:25.743Z,1.80
2023-04-13T20:03:53.018Z,1.75
2023-04-13T20:06:20.220Z,1.50
2023-04-13T20:08:47.435Z,1.60
2023-04-13T20:11:14.847Z,1.52
2023-04-13T20:13:42.000Z,1.38
2023-04-13T20:16:10.797Z,1.52
2023-04-13T20:18:38.287Z,1.60
2023-04-13T20:21:06.572Z,1.23
2023-04-13T20:23:34.485Z,1.48
2023-04-13T20:26:01.394Z,1.60
2023-04-13T20:28:28.471Z,1.63
2023-04-13T20:30:55.547Z,1.42
2023-04-13T20:33:22.535Z,1.38
2023-04-13T20:35:49.937Z,1.85
2023-04-13T20:38:16.987Z,1.60
2023-04-13T20:40:45.730Z,1.42
2023-04-13T20:43:15.474Z,1.42
2023-04-13T20:45:45.548Z,1.20
2023-04-13T20:50:47.851Z,1.30
2023-04-13T20:53:16.594Z,1.38
2023-04-13T20:55:43.535Z,1.30
2023-04-13T20:58:10.832Z,1.45
2023-04-13T21:00:38.429Z,1.13
2023-04-13T21:03:09.040Z,1.30
2023-04-13T21:05:36.642Z,1.13
2023-04-13T21:08:03.721Z,1.50
2023-04-13T21:10:30.683Z,1.30
2023-04-13T21:12:57.648Z,1.73
2023-04-13T21:15:24.603Z,1.40
2023-04-13T21:17:51.666Z,1.52
2023-04-13T21:20:18.743Z,1.40
2023-04-13T21:22:45.684Z,1.27
2023-04-13T21:25:12.736Z,1.20
2023-04-13T21:27:39.739Z,1.10
2023-04-13T21:30:07.315Z,1.33
2023-04-13T21:32:34.265Z,1.30
2023-04-13T21:35:01.264Z,1.10
2023-04-13T21:37:31.932Z,1.30
2023-04-13T21:39:59.353Z,1.00
2023-04-13T21:42:26.448Z,1.40
2023-04-13T21:44:55.541Z,1.33
2023-04-13T21:47:22.846Z,1.23
2023-04-13T21:49:49.880Z,2.55
2023-04-13T21:52:16.764Z,1.23
2023-04-13T21:54:43.712Z,1.00
2023-04-13T21:57:10.649Z,1.15
2023-04-13T21:59:37.620Z,1.50
2023-04-13T22:02:04.654Z,1.40
2023-04-13T22:04:31.885Z,1.05
2023-04-13T22:06:58.954Z,1.38
2023-04-13T22:09:26.022Z,1.23
2023-04-13T22:11:52.916Z,1.40
2023-04-13T22:14:19.805Z,1.65
2023-04-13T22:16:48.717Z,1.70
2023-04-13T22:19:16.109Z,1.15
2023-04-13T22:21:43.204Z,1.30
2023-04-13T22:24:10.554Z,1.20
2023-04-13T22:26:37.478Z,1.30
2023-04-13T22:29:04.360Z,1.10
2023-04-13T22:31:31.339Z,1.17
2023-04-13T22:33:58.252Z,1.15
2023-04-13T22:36:25.171Z,0.90
2023-04-13T22:38:52.798Z,1.05
2023-04-13T22:41:19.784Z,1.00
2023-04-13T22:43:46.871Z,1.08
2023-04-13T22:46:13.975Z,1.13
2023-04-13T22:48:40.933Z,1.13
2023-04-13T22:51:07.962Z,1.10
2023-04-13T22:53:34.885Z,1.00
2023-04-13T22:56:01.884Z,0.80
2023-04-13T22:58:28.952Z,0.93
2023-04-13T23:00:55.918Z,1.52
2023-04-13T23:03:23.034Z,1.00
2023-04-13T23:05:50.215Z,1.27
2023-04-13T23:08:17.207Z,1.10
2023-04-13T23:10:44.146Z,1.17
2023-04-13T23:13:11.144Z,1.10
2023-04-13T23:15:39.331Z,1.10
2023-04-13T23:18:06.408Z,1.10
2023-04-13T23:20:33.406Z,1.50
2023-04-13T23:23:00.599Z,1.35
2023-04-13T23:25:27.686Z,1.20
2023-04-13T23:27:54.645Z,1.27
2023-04-13T23:30:21.716Z,1.20
2023-04-13T23:32:48.672Z,1.08
2023-04-13T23:35:15.852Z,1.25
2023-04-13T23:37:45.162Z,0.85
2023-04-13T23:40:12.360Z,1.20
2023-04-13T23:45:24.988Z,1.08
2023-04-13T23:47:52.377Z,1.00
2023-04-13T23:50:19.323Z,0.95
2023-04-13T23:52:46.258Z,0.90
2023-04-13T23:55:13.252Z,0.80
2023-04-13T23:57:40.202Z,0.93
